Portada
METAR-TAF:

METAR-TAF

Aeroports :

San Juan de Pasto, Colòmbia

latitud: 01-25N, longitud: 077-16W, altitud: 1826 m

Observació

L'informe es va fer fa 1 hora i 21 minuts, a les 23:00 UTC
Vent 11 kt del Est/Sud-Est
Temperatura 22°C
Humitat 43%
Pressió 1020 hPa
Visibilitat 10 km o més
Núvols disperses a una alçada de 2500 ft

METAR: SKPS 162300Z 11011KT 9999 SCT025 22/09 A3011

Hora: 19:21 (00:21 UTC)


TAF: manca

Observacions i pronòstics meteorològics de més de 4000 aeroports (METAR i TAF).

Les estacions disponibles són els punts grocs i vermells al mapa.

Posi el ratolí al punt desitjat per veure el nom de l'estació.

Feu clic per veure les observacions i els pronòstics meteorològics.

Per canviar el mapa: feu clic els botons verds amb una creu de color negre per apropar; al botó verd amb un guió per allunyar la imatge; o en les fletxes verdes per a mapes adjacents.


METAR-TAF: